<?xml version="1.0" encoding="utf-8"?>
<gpx xmlns:xsi="http://www.w3.org/2001/XMLSchema-instance" xmlns:xsd="http://www.w3.org/2001/XMLSchema" version="1.1" creator="Shapelink.com" xmlns="http://www.topografix.com/GPX/1/1" xmlns:gpxtpx="http://www.garmin.com/xmlschemas/TrackPointExtension/v1">
  <metadata>
    <name>Simning 1.59 km, 2016-04-17</name>
    <desc></desc>
    <author><name>Stefan Östlund</name></author> 
    <time>2016-04-17T17:16:43Z</time>
  </metadata>
  <trk>
    <name>Simning 1.59 km, 2016-04-17</name>
    <trkseg>
      <trkpt lat="28.22734492993" lon="-13.987855955015">
        <ele>0</ele>
        <time>2016-04-17T17:16:43Z</time>
      </trkpt>
      <trkpt lat="28.227240575275" lon="-13.987629308439">
        <ele>0</ele>
        <time>2016-04-17T17:17:51Z</time>
      </trkpt>
      <trkpt lat="28.227467138032" lon="-13.987806334167">
        <ele>0</ele>
        <time>2016-04-17T17:22:08Z</time>
      </trkpt>
      <trkpt lat="28.227654976411" lon="-13.987921585292">
        <ele>0</ele>
        <time>2016-04-17T17:24:14Z</time>
      </trkpt>
      <trkpt lat="28.226967912068" lon="-13.987502071197">
        <ele>0</ele>
        <time>2016-04-17T17:25:53Z</time>
      </trkpt>
      <trkpt lat="28.227465210195" lon="-13.987585554921">
        <ele>0</ele>
        <time>2016-04-17T17:30:54Z</time>
      </trkpt>
      <trkpt lat="28.227292794512" lon="-13.987121784394">
        <ele>0</ele>
        <time>2016-04-17T17:33:34Z</time>
      </trkpt>
      <trkpt lat="28.227071093257" lon="-13.986717357719">
        <ele>0</ele>
        <time>2016-04-17T17:34:21Z</time>
      </trkpt>
      <trkpt lat="28.226928936233" lon="-13.986266830594">
        <ele>0</ele>
        <time>2016-04-17T17:35:16Z</time>
      </trkpt>
      <trkpt lat="28.226589385464" lon="-13.985910851301">
        <ele>0</ele>
        <time>2016-04-17T17:36:08Z</time>
      </trkpt>
      <trkpt lat="28.223340309567" lon="-13.989928882704">
        <ele>0</ele>
        <time>2016-04-17T17:50:35Z</time>
      </trkpt>
      <trkpt lat="28.223364114163" lon="-13.989960650105">
        <ele>0</ele>
        <time>2016-04-17T17:50:38Z</time>
      </trkpt>
      <trkpt lat="28.223376267918" lon="-13.989968948186">
        <ele>0</ele>
        <time>2016-04-17T17:50:41Z</time>
      </trkpt>
      <trkpt lat="28.223401748894" lon="-13.989976072801">
        <ele>0</ele>
        <time>2016-04-17T17:50:45Z</time>
      </trkpt>
      <trkpt lat="28.223397474125" lon="-13.989962829399">
        <ele>0</ele>
        <time>2016-04-17T17:50:49Z</time>
      </trkpt>
      <trkpt lat="28.223411639536" lon="-13.989894097819">
        <ele>0</ele>
        <time>2016-04-17T17:50:54Z</time>
      </trkpt>
      <trkpt lat="28.22340711331" lon="-13.989805417317">
        <ele>0</ele>
        <time>2016-04-17T17:51:01Z</time>
      </trkpt>
      <trkpt lat="28.223424296205" lon="-13.989605760459">
        <ele>0</ele>
        <time>2016-04-17T17:51:12Z</time>
      </trkpt>
      <trkpt lat="28.22380273899" lon="-13.989202255793">
        <ele>0</ele>
        <time>2016-04-17T17:52:05Z</time>
      </trkpt>
      <trkpt lat="28.224079006414" lon="-13.988904782162">
        <ele>0</ele>
        <time>2016-04-17T17:53:05Z</time>
      </trkpt>
      <trkpt lat="28.22447915832" lon="-13.988418967238">
        <ele>0</ele>
        <time>2016-04-17T17:54:13Z</time>
      </trkpt>
      <trkpt lat="28.224796077959" lon="-13.988194583775">
        <ele>0</ele>
        <time>2016-04-17T17:55:14Z</time>
      </trkpt>
      <trkpt lat="28.225133365615" lon="-13.987845896735">
        <ele>0</ele>
        <time>2016-04-17T17:56:06Z</time>
      </trkpt>
      <trkpt lat="28.225395970542" lon="-13.987572395338">
        <ele>0</ele>
        <time>2016-04-17T17:57:22Z</time>
      </trkpt>
      <trkpt lat="28.225824034175" lon="-13.987144666981">
        <ele>0</ele>
        <time>2016-04-17T17:58:18Z</time>
      </trkpt>
      <trkpt lat="28.226042298851" lon="-13.986912823627">
        <ele>0</ele>
        <time>2016-04-17T17:59:26Z</time>
      </trkpt>
      <trkpt lat="28.226422418016" lon="-13.986477719198">
        <ele>0</ele>
        <time>2016-04-17T18:00:32Z</time>
      </trkpt>
      <trkpt lat="28.22673053666" lon="-13.986145712139">
        <ele>0</ele>
        <time>2016-04-17T18:01:42Z</time>
      </trkpt>
    </trkseg>
  </trk>
</gpx>